Time;durP1;ratioP1;P1;durP2;ratioP2;P2;SDS_P1;SDS_P2;PMS_P1;PMS_P2;Temp;Humidity;BMP_temperature;BMP_pressure;BME280_temperature;BME280_humidity;BME280_pressure;Samples;Min_cycle;Max_cycle;Signal;HPM_P1;HPM_P2
2023/04/05 00:01:39;;;;;;;10.95;9.70;;;-2.10;99.90;;;;;;5025547;28;20045;-57
2023/04/05 00:04:06;;;;;;;13.65;10.68;;;-2.20;99.90;;;;;;5062610;28;20025;-57
2023/04/05 00:06:33;;;;;;;12.48;10.10;;;-2.20;99.90;;;;;;5061261;28;20037;-56
2023/04/05 00:09:01;;;;;;;11.63;10.45;;;-2.20;99.90;;;;;;5057792;28;20037;-57
2023/04/05 00:11:31;;;;;;;12.60;9.85;;;-2.20;99.90;;;;;;5057196;28;20151;-56
2023/04/05 00:14:01;;;;;;;15.50;11.00;;;-2.30;99.90;;;;;;5058686;28;20819;-57
2023/04/05 00:16:28;;;;;;;10.20;9.15;;;-2.30;99.90;;;;;;5058589;28;20086;-56
2023/04/05 00:18:55;;;;;;;10.07;9.18;;;-2.30;99.90;;;;;;5057130;28;20017;-56
2023/04/05 00:21:22;;;;;;;10.40;9.30;;;-2.40;99.90;;;;;;5060171;28;20373;-57
2023/04/05 00:23:50;;;;;;;11.20;10.20;;;-2.40;99.90;;;;;;5058360;28;20024;-57
2023/04/05 00:26:16;;;;;;;10.73;9.63;;;-2.40;99.90;;;;;;5057616;28;20029;-58
2023/04/05 00:28:42;;;;;;;12.73;9.70;;;-2.40;99.90;;;;;;5058439;28;20020;-56
2023/04/05 00:31:08;;;;;;;10.60;9.60;;;-2.40;99.90;;;;;;5061693;28;20388;-57
2023/04/05 00:33:33;;;;;;;11.23;9.65;;;-2.40;99.90;;;;;;5058676;28;20025;-58
2023/04/05 00:36:13;;;;;;;11.15;8.77;;;-2.40;99.90;;;;;;5062363;28;20052;-58
2023/04/05 00:38:40;;;;;;;10.90;9.05;;;-2.40;99.90;;;;;;5056788;28;20071;-57
2023/04/05 00:41:06;;;;;;;11.32;10.10;;;-2.50;99.90;;;;;;5059536;28;20023;-57
2023/04/05 00:43:31;;;;;;;9.98;8.80;;;-2.50;99.90;;;;;;5058549;28;20017;-56
2023/04/05 00:45:57;;;;;;;10.05;9.05;;;-2.50;99.90;;;;;;5063303;28;20143;-56
2023/04/05 00:48:23;;;;;;;12.75;9.18;;;-2.50;99.90;;;;;;5064104;28;20031;-57
2023/04/05 00:50:50;;;;;;;10.77;9.82;;;-2.50;99.90;;;;;;5062127;28;20032;-57
2023/04/05 00:53:18;;;;;;;9.90;8.98;;;-2.60;99.90;;;;;;5063573;28;20029;-57
2023/04/05 00:55:46;;;;;;;11.43;10.18;;;-2.60;99.90;;;;;;5063594;28;20388;-60
2023/04/05 00:58:12;;;;;;;16.85;10.93;;;-2.60;99.90;;;;;;5060235;28;20384;-57
2023/04/05 01:00:38;;;;;;;12.18;10.25;;;-2.60;99.90;;;;;;5064592;28;20021;-58
2023/04/05 01:03:06;;;;;;;12.65;10.13;;;-2.70;99.90;;;;;;5064327;28;20651;-57
2023/04/05 01:05:35;;;;;;;12.38;9.13;;;-2.70;99.90;;;;;;5061499;28;20075;-57
2023/04/05 01:08:27;;;;;;;11.68;9.02;;;-2.70;99.90;;;;;;5060876;28;20550;-56
2023/04/05 01:11:00;;;;;;;10.63;8.90;;;-2.80;99.90;;;;;;5060999;28;20033;-57
2023/04/05 01:13:27;;;;;;;12.48;9.48;;;-2.80;99.90;;;;;;5058173;28;20033;-57
2023/04/05 01:15:53;;;;;;;9.40;8.60;;;-2.80;99.90;;;;;;5059608;28;20016;-58
2023/04/05 01:18:20;;;;;;;11.18;9.50;;;-2.80;99.90;;;;;;5058879;28;20027;-56
2023/04/05 01:20:58;;;;;;;10.52;9.45;;;-2.80;99.90;;;;;;5060714;28;20040;-57
2023/04/05 01:23:41;;;;;;;10.20;9.20;;;-2.90;99.90;;;;;;5059964;28;20025;-56
2023/04/05 01:26:39;;;;;;;11.35;9.73;;;-2.90;99.90;;;;;;5058969;28;20029;-57
2023/04/05 01:29:34;;;;;;;13.18;8.52;;;-2.90;99.90;;;;;;5048412;28;20528;-58
2023/04/05 01:32:07;;;;;;;12.00;9.32;;;-3.00;99.90;;;;;;5065522;28;20041;-56
2023/04/05 01:34:52;;;;;;;10.93;9.93;;;-3.00;99.90;;;;;;5064162;28;20452;-57
2023/04/05 01:37:21;;;;;;;11.98;10.73;;;-3.00;99.90;;;;;;5060777;28;20045;-56
2023/04/05 01:39:49;;;;;;;11.60;9.25;;;-3.10;99.90;;;;;;5060727;28;20027;-57
2023/04/05 01:42:21;;;;;;;11.77;9.40;;;-3.10;99.90;;;;;;5062147;28;20032;-58
2023/04/05 01:44:46;;;;;;;11.63;9.48;;;-3.10;99.90;;;;;;5059872;28;20049;-56
2023/04/05 01:47:12;;;;;;;13.27;9.85;;;-3.10;99.90;;;;;;5060725;28;20060;-57
2023/04/05 01:49:37;;;;;;;12.35;9.95;;;-3.10;99.90;;;;;;5058848;28;20857;-56
2023/04/05 01:52:03;;;;;;;10.70;9.70;;;-3.10;99.90;;;;;;5059825;28;20036;-56
2023/04/05 01:54:28;;;;;;;9.10;8.20;;;-3.20;99.90;;;;;;5061443;28;20770;-55
2023/04/05 01:56:55;;;;;;;10.98;9.60;;;-3.20;99.90;;;;;;5059589;28;20102;-57
2023/04/05 01:59:21;;;;;;;15.60;9.15;;;-3.20;99.90;;;;;;5057182;28;20398;-58
2023/04/05 02:01:46;;;;;;;11.98;10.85;;;-3.20;99.90;;;;;;5059878;28;20024;-57
2023/04/05 02:04:12;;;;;;;12.27;10.15;;;-3.30;99.90;;;;;;5059456;28;20025;-56
2023/04/05 02:06:37;;;;;;;11.13;9.48;;;-3.30;99.90;;;;;;5061059;28;20056;-58
2023/04/05 02:09:03;;;;;;;11.70;10.10;;;-3.20;99.90;;;;;;5060802;28;20115;-56
2023/04/05 02:11:29;;;;;;;11.13;9.77;;;-3.30;99.90;;;;;;5059572;28;20035;-56
2023/04/05 02:13:55;;;;;;;10.45;9.07;;;-3.30;99.90;;;;;;5058954;28;20029;-58
2023/04/05 02:16:20;;;;;;;9.57;8.52;;;-3.30;99.90;;;;;;5060736;28;20024;-56
2023/04/05 02:18:49;;;;;;;11.50;8.95;;;-3.30;99.90;;;;;;5060423;28;20012;-56
2023/04/05 02:21:15;;;;;;;13.48;8.88;;;-3.30;99.90;;;;;;5059559;28;20117;-56
2023/04/05 02:23:41;;;;;;;9.13;8.23;;;-3.40;99.90;;;;;;5059799;28;20485;-57
2023/04/05 02:26:06;;;;;;;10.50;8.27;;;-3.30;99.90;;;;;;5058770;28;20029;-56
2023/04/05 02:28:32;;;;;;;9.80;8.80;;;-3.40;99.90;;;;;;5061302;28;20025;-57
2023/04/05 02:30:58;;;;;;;9.43;8.50;;;-3.40;99.90;;;;;;5060257;28;20055;-57
2023/04/05 02:33:23;;;;;;;15.05;8.57;;;-3.40;99.90;;;;;;5059980;28;20104;-57
2023/04/05 02:35:50;;;;;;;11.80;8.45;;;-3.40;99.90;;;;;;5059977;28;20392;-56
2023/04/05 02:38:16;;;;;;;8.63;7.82;;;-3.40;99.90;;;;;;5061245;28;20029;-57
2023/04/05 02:40:42;;;;;;;15.45;8.82;;;-3.40;99.90;;;;;;5060494;28;20380;-59
2023/04/05 02:43:07;;;;;;;11.55;8.95;;;-3.40;99.90;;;;;;5062587;28;20033;-57
2023/04/05 02:45:33;;;;;;;9.55;8.55;;;-3.40;99.90;;;;;;5059855;28;20036;-56
2023/04/05 02:47:58;;;;;;;9.48;8.60;;;-3.40;99.90;;;;;;5057642;28;20031;-57
2023/04/05 02:50:24;;;;;;;14.32;8.60;;;-3.50;99.90;;;;;;5059267;28;20032;-56
2023/04/05 02:52:50;;;;;;;9.57;8.35;;;-3.50;99.90;;;;;;5061412;28;20124;-57
2023/04/05 02:55:16;;;;;;;10.57;9.50;;;-3.50;99.90;;;;;;5058762;28;20019;-55
2023/04/05 02:57:45;;;;;;;10.77;9.13;;;-3.50;99.90;;;;;;5061517;28;20354;-56
2023/04/05 03:00:11;;;;;;;13.00;8.95;;;-3.50;99.90;;;;;;5057273;28;20029;-55
2023/04/05 03:02:38;;;;;;;9.57;8.60;;;-3.50;99.90;;;;;;5060885;28;20046;-57
2023/04/05 03:05:04;;;;;;;11.40;9.68;;;-3.60;99.90;;;;;;5061693;28;20033;-56
2023/04/05 03:07:32;;;;;;;9.48;8.32;;;-3.50;99.90;;;;;;5059225;28;20199;-57
2023/04/05 03:09:58;;;;;;;10.63;9.27;;;-3.50;99.90;;;;;;5059076;28;20020;-58
2023/04/05 03:12:24;;;;;;;11.43;9.05;;;-3.60;99.90;;;;;;5056708;28;20031;-57
2023/04/05 03:14:49;;;;;;;12.52;9.50;;;-3.60;99.90;;;;;;5057098;28;20040;-56
2023/04/05 03:17:15;;;;;;;10.65;9.55;;;-3.50;99.90;;;;;;5057953;28;20033;-56
2023/04/05 03:19:41;;;;;;;10.80;9.70;;;-3.60;99.90;;;;;;5057681;28;20029;-58
2023/04/05 03:22:07;;;;;;;11.90;10.52;;;-3.60;99.90;;;;;;5062536;28;20106;-55
2023/04/05 03:24:32;;;;;;;10.60;9.35;;;-3.70;99.90;;;;;;5060060;28;20035;-56
2023/04/05 03:27:01;;;;;;;10.63;9.45;;;-3.70;99.90;;;;;;5057545;28;20029;-55
2023/04/05 03:29:27;;;;;;;10.88;9.77;;;-3.70;99.90;;;;;;5057316;28;20449;-56
2023/04/05 03:31:53;;;;;;;11.50;8.98;;;-3.70;99.90;;;;;;5059797;28;20501;-56
2023/04/05 03:34:18;;;;;;;10.50;9.50;;;-3.70;99.90;;;;;;5060565;28;20364;-58
2023/04/05 03:36:44;;;;;;;13.38;9.50;;;-3.80;99.90;;;;;;5058312;28;20013;-57
2023/04/05 03:39:12;;;;;;;11.15;9.77;;;-3.80;99.90;;;;;;5056876;28;20021;-57
2023/04/05 03:41:39;;;;;;;12.02;10.07;;;-3.80;99.90;;;;;;5062480;28;20396;-57
2023/04/05 03:44:06;;;;;;;12.10;9.48;;;-3.80;99.90;;;;;;5059918;28;20025;-57
2023/04/05 03:46:32;;;;;;;10.80;9.70;;;-3.80;99.90;;;;;;5059659;28;20017;-56
2023/04/05 03:48:59;;;;;;;11.05;9.75;;;-3.80;99.90;;;;;;5057090;28;20086;-56
2023/04/05 03:51:25;;;;;;;12.88;10.23;;;-3.90;99.90;;;;;;5056796;28;20077;-57
2023/04/05 03:53:51;;;;;;;11.20;10.13;;;-3.90;99.90;;;;;;5059558;28;20144;-57
2023/04/05 03:56:17;;;;;;;15.82;10.75;;;-3.80;99.90;;;;;;5060454;28;20123;-57
2023/04/05 03:58:43;;;;;;;12.40;10.55;;;-3.90;99.90;;;;;;5060862;28;20444;-57
2023/04/05 04:01:10;;;;;;;11.90;9.30;;;-3.90;99.90;;;;;;5059352;28;20048;-57
2023/04/05 04:03:39;;;;;;;10.77;7.90;;;-3.90;99.90;;;;;;5055475;28;20025;-58
2023/04/05 04:06:05;;;;;;;10.95;9.00;;;-3.90;99.90;;;;;;5057557;28;20043;-57
2023/04/05 04:08:31;;;;;;;9.27;8.38;;;-3.90;99.90;;;;;;5060580;28;20028;-56
2023/04/05 04:10:57;;;;;;;9.77;8.77;;;-3.90;99.90;;;;;;5059596;28;20025;-57
2023/04/05 04:13:23;;;;;;;11.23;7.85;;;-3.90;99.90;;;;;;5058643;28;20033;-56
2023/04/05 04:15:49;;;;;;;11.38;7.97;;;-3.90;99.90;;;;;;5059967;28;20472;-58
2023/04/05 04:18:15;;;;;;;10.07;9.07;;;-3.90;99.90;;;;;;5058572;28;20067;-57
2023/04/05 04:20:40;;;;;;;13.32;9.40;;;-3.90;99.90;;;;;;5060305;28;20456;-57
2023/04/05 04:23:09;;;;;;;9.75;8.73;;;-3.90;99.90;;;;;;5063535;28;20458;-57
2023/04/05 04:25:36;;;;;;;10.68;8.25;;;-3.90;99.90;;;;;;5063856;28;20032;-57
2023/04/05 04:28:05;;;;;;;9.27;8.27;;;-3.90;99.90;;;;;;5066563;28;20020;-56
2023/04/05 04:30:33;;;;;;;11.30;8.82;;;-3.90;99.90;;;;;;5064263;28;20032;-56
2023/04/05 04:33:03;;;;;;;9.98;8.98;;;-3.90;99.90;;;;;;5065082;28;20033;-57
2023/04/05 04:35:32;;;;;;;14.35;9.15;;;-3.90;99.90;;;;;;5062311;28;20029;-55
2023/04/05 04:38:00;;;;;;;13.35;9.00;;;-3.90;99.90;;;;;;5061952;28;20036;-56
2023/04/05 04:40:38;;;;;;;9.35;8.50;;;-3.90;99.90;;;;;;5062296;28;20032;-58
2023/04/05 04:43:08;;;;;;;9.60;8.50;;;-3.80;99.90;;;;;;5063565;28;20436;-55
2023/04/05 04:45:36;;;;;;;11.80;9.90;;;-3.80;99.90;;;;;;5064534;28;20021;-58
2023/04/05 04:48:03;;;;;;;10.75;9.50;;;-3.80;99.90;;;;;;5063125;28;20049;-57
2023/04/05 04:50:30;;;;;;;11.68;9.30;;;-3.70;99.90;;;;;;5061681;28;20037;-56
2023/04/05 04:52:58;;;;;;;10.75;9.30;;;-3.70;99.90;;;;;;5061767;28;20137;-56
2023/04/05 04:55:25;;;;;;;12.95;9.50;;;-3.70;99.90;;;;;;5062890;28;20500;-58
2023/04/05 04:57:54;;;;;;;14.95;9.38;;;-3.70;99.90;;;;;;5061206;28;20032;-56
2023/04/05 05:00:21;;;;;;;10.23;9.00;;;-3.60;99.90;;;;;;5060933;28;20122;-57
2023/04/05 05:02:46;;;;;;;13.82;10.27;;;-3.60;99.90;;;;;;5061281;28;20036;-57
2023/04/05 05:05:12;;;;;;;13.00;9.13;;;-3.50;99.90;;;;;;5060190;28;20081;-57
2023/04/05 05:07:42;;;;;;;14.00;9.65;;;-3.50;99.90;;;;;;5061584;28;20138;-56
2023/04/05 05:10:10;;;;;;;9.18;8.27;;;-3.40;99.90;;;;;;5063560;28;20507;-56
2023/04/05 05:12:36;;;;;;;12.43;9.52;;;-3.40;99.90;;;;;;5061441;28;20044;-56
2023/04/05 05:15:02;;;;;;;14.60;9.18;;;-3.40;99.90;;;;;;5064680;28;20031;-59
2023/04/05 05:17:28;;;;;;;12.32;10.38;;;-3.30;99.90;;;;;;5062285;28;20489;-56
2023/04/05 05:19:53;;;;;;;11.90;10.43;;;-3.30;99.90;;;;;;5062533;28;20025;-55
2023/04/05 05:22:19;;;;;;;15.57;9.80;;;-3.20;99.90;;;;;;5061452;28;20021;-56
2023/04/05 05:24:45;;;;;;;13.82;10.48;;;-3.10;99.90;;;;;;5064629;28;20012;-57
2023/04/05 05:27:11;;;;;;;11.65;9.85;;;-3.00;99.90;;;;;;5060762;28;20056;-57
2023/04/05 05:29:36;;;;;;;8.80;7.95;;;-3.00;99.90;;;;;;5058359;28;20021;-57
2023/04/05 05:32:02;;;;;;;7.97;7.18;;;-2.90;99.90;;;;;;5062500;28;20052;-56
2023/04/05 05:34:28;;;;;;;7.68;6.75;;;-2.90;99.90;;;;;;5061539;28;20424;-56
2023/04/05 05:36:54;;;;;;;8.07;7.28;;;-2.90;99.90;;;;;;5062052;28;20494;-57
2023/04/05 05:39:20;;;;;;;8.27;7.47;;;-2.80;99.90;;;;;;5062633;28;20036;-55
2023/04/05 05:41:46;;;;;;;8.40;7.60;;;-2.70;99.90;;;;;;5062519;28;20028;-57
2023/04/05 05:44:12;;;;;;;8.88;7.68;;;-2.70;99.90;;;;;;5063592;28;20112;-56
2023/04/05 05:46:38;;;;;;;7.80;6.75;;;-2.60;99.90;;;;;;5060519;28;20117;-57
2023/04/05 05:49:04;;;;;;;8.00;6.88;;;-2.60;99.90;;;;;;5061105;28;20056;-57
2023/04/05 05:51:31;;;;;;;7.95;6.53;;;-2.50;99.90;;;;;;5058721;28;20111;-57
2023/04/05 05:53:57;;;;;;;8.73;7.38;;;-2.40;99.90;;;;;;5059344;28;20710;-57
2023/04/05 05:56:22;;;;;;;7.55;6.60;;;-2.30;99.90;;;;;;5059319;28;20117;-57
2023/04/05 05:58:48;;;;;;;7.20;6.50;;;-2.30;99.90;;;;;;5062925;28;20041;-60
2023/04/05 06:01:14;;;;;;;8.98;6.70;;;-2.30;99.90;;;;;;5062352;28;20093;-57
2023/04/05 06:03:39;;;;;;;7.32;6.63;;;-2.20;99.90;;;;;;5060839;28;20025;-57
2023/04/05 06:06:07;;;;;;;9.07;7.78;;;-2.20;99.90;;;;;;5060208;28;20700;-59
2023/04/05 06:08:33;;;;;;;11.68;8.30;;;-2.20;99.90;;;;;;5061685;28;20475;-57
2023/04/05 06:10:58;;;;;;;8.25;7.38;;;-2.10;99.90;;;;;;5060844;28;20025;-58
2023/04/05 06:13:25;;;;;;;8.85;7.95;;;-2.10;99.90;;;;;;5060722;28;20036;-56
2023/04/05 06:15:50;;;;;;;9.90;7.60;;;-2.00;99.90;;;;;;5058716;28;20035;-57
2023/04/05 06:18:16;;;;;;;11.18;8.05;;;-2.00;99.90;;;;;;5060546;28;20033;-56
2023/04/05 06:20:43;;;;;;;9.50;8.48;;;-1.90;99.90;;;;;;5058161;28;20215;-57
2023/04/05 06:23:10;;;;;;;9.90;7.57;;;-1.80;99.90;;;;;;5058584;28;20037;-58
2023/04/05 06:25:36;;;;;;;10.30;9.43;;;-1.70;99.90;;;;;;5059211;28;20107;-58
2023/04/05 06:28:03;;;;;;;8.75;7.95;;;-1.70;99.90;;;;;;5062182;28;20116;-58
2023/04/05 06:30:30;;;;;;;8.45;7.75;;;-1.50;99.90;;;;;;5059895;28;20034;-57
2023/04/05 06:32:56;;;;;;;8.07;7.35;;;-1.50;99.90;;;;;;5058801;28;20086;-60
2023/04/05 06:35:23;;;;;;;9.23;8.30;;;-1.40;99.90;;;;;;5059603;28;20036;-56
2023/04/05 06:37:49;;;;;;;9.38;7.45;;;-1.30;99.90;;;;;;5059749;28;20562;-58
2023/04/05 06:40:15;;;;;;;8.95;7.55;;;-1.20;99.90;;;;;;5060699;28;20070;-58
2023/04/05 06:42:42;;;;;;;9.00;7.00;;;-1.10;99.90;;;;;;5057397;28;20025;-58
2023/04/05 06:45:08;;;;;;;7.40;6.47;;;-1.10;99.90;;;;;;5058600;28;20570;-58
2023/04/05 06:47:34;;;;;;;9.85;7.13;;;-1.10;99.90;;;;;;5061014;28;20033;-58
2023/04/05 06:50:01;;;;;;;8.10;6.80;;;-1.00;99.90;;;;;;5059535;28;20025;-58
2023/04/05 06:52:27;;;;;;;8.18;6.40;;;-1.00;99.90;;;;;;5058662;28;20444;-57
2023/04/05 06:54:53;;;;;;;8.52;6.60;;;-1.00;99.90;;;;;;5059527;28;20421;-57
2023/04/05 06:57:19;;;;;;;8.27;6.30;;;-0.90;99.90;;;;;;5060123;28;20033;-59
2023/04/05 06:59:45;;;;;;;7.43;6.70;;;-0.90;99.90;;;;;;5059518;28;20039;-57
2023/04/05 07:02:11;;;;;;;7.28;6.63;;;-0.80;99.90;;;;;;5059475;28;20025;-59
2023/04/05 07:04:37;;;;;;;8.90;6.70;;;-0.80;99.90;;;;;;5060903;28;20030;-57
2023/04/05 07:07:04;;;;;;;7.10;6.43;;;-0.70;99.90;;;;;;5064582;28;20035;-58
2023/04/05 07:09:31;;;;;;;7.72;6.90;;;-0.60;99.90;;;;;;5057770;28;20525;-58
2023/04/05 07:11:58;;;;;;;9.05;6.32;;;-0.50;99.90;;;;;;5060532;28;20516;-57
2023/04/05 07:14:23;;;;;;;7.45;6.68;;;-0.40;99.90;;;;;;5060203;28;20471;-57
2023/04/05 07:16:51;;;;;;;8.65;7.10;;;-0.30;99.90;;;;;;5061370;28;20040;-58
2023/04/05 07:19:17;;;;;;;10.57;6.95;;;-0.20;99.90;;;;;;5058179;28;20025;-57
2023/04/05 07:21:43;;;;;;;12.05;6.80;;;-0.10;99.90;;;;;;5065231;28;20056;-58
2023/04/05 07:24:09;;;;;;;9.10;6.88;;;0.00;99.90;;;;;;5060177;28;20063;-58
2023/04/05 07:26:36;;;;;;;7.13;6.45;;;0.10;99.90;;;;;;5060381;28;20086;-58
2023/04/05 07:29:05;;;;;;;8.73;7.38;;;0.10;99.90;;;;;;5058127;28;20031;-59
2023/04/05 07:31:31;;;;;;;8.82;6.85;;;0.20;99.90;;;;;;5059955;28;20118;-58
2023/04/05 07:34:00;;;;;;;7.10;6.32;;;0.30;99.90;;;;;;5061756;28;20021;-59
2023/04/05 07:36:26;;;;;;;7.88;7.07;;;0.30;99.90;;;;;;5058247;28;20125;-58
2023/04/05 07:38:53;;;;;;;9.55;5.70;;;0.40;99.90;;;;;;5056607;28;20606;-57
2023/04/05 07:41:19;;;;;;;7.43;5.15;;;0.50;99.90;;;;;;5055277;28;20033;-59
2023/04/05 07:43:45;;;;;;;5.28;4.78;;;0.50;99.90;;;;;;5055972;28;20034;-59
2023/04/05 07:46:11;;;;;;;7.90;5.95;;;0.60;99.90;;;;;;5053562;28;20064;-58
2023/04/05 07:48:37;;;;;;;6.88;4.97;;;0.60;99.90;;;;;;5058067;28;20485;-59
2023/04/05 07:51:08;;;;;;;6.90;5.22;;;0.80;99.90;;;;;;5059486;28;20048;-60
2023/04/05 07:53:35;;;;;;;5.10;4.60;;;0.90;99.90;;;;;;5057683;28;20032;-59
2023/04/05 07:56:05;;;;;;;6.55;5.47;;;1.00;99.90;;;;;;5058494;28;20033;-59
2023/04/05 07:58:31;;;;;;;5.70;5.07;;;1.10;99.90;;;;;;5062826;28;20496;-59
2023/04/05 08:01:03;;;;;;;6.22;4.75;;;1.20;99.90;;;;;;5059532;28;20032;-58
2023/04/05 08:03:30;;;;;;;6.63;4.35;;;1.30;99.90;;;;;;5055906;28;20089;-59
2023/04/05 08:05:56;;;;;;;4.82;4.30;;;1.40;99.90;;;;;;5059859;28;20028;-58
2023/04/05 08:08:23;;;;;;;5.40;4.43;;;1.50;99.90;;;;;;5060466;28;20204;-60
2023/04/05 08:10:49;;;;;;;6.72;4.32;;;1.60;99.90;;;;;;5060569;28;20037;-60
2023/04/05 08:13:15;;;;;;;4.40;4.00;;;1.70;99.90;;;;;;5059691;28;20020;-59
2023/04/05 08:15:41;;;;;;;5.65;3.97;;;1.80;99.90;;;;;;5058859;28;20017;-60
2023/04/05 08:18:07;;;;;;;4.38;3.45;;;1.90;99.90;;;;;;5056703;28;20664;-60
2023/04/05 08:20:37;;;;;;;6.22;3.63;;;2.10;99.90;;;;;;5059582;28;20649;-59
2023/04/05 08:23:04;;;;;;;6.07;2.60;;;2.20;99.90;;;;;;5059014;28;20148;-60
2023/04/05 08:25:30;;;;;;;4.97;2.75;;;2.30;99.90;;;;;;5059294;28;20063;-60
2023/04/05 08:27:55;;;;;;;3.55;1.92;;;2.50;99.20;;;;;;5059051;28;20040;-59
2023/04/05 08:30:22;;;;;;;3.40;2.28;;;2.70;93.80;;;;;;5057253;28;20508;-58
2023/04/05 08:32:48;;;;;;;4.10;2.40;;;2.80;94.00;;;;;;5058546;28;20033;-60
2023/04/05 08:35:14;;;;;;;2.70;1.90;;;3.00;94.40;;;;;;5059898;28;20032;-59
2023/04/05 08:37:40;;;;;;;4.35;2.38;;;3.30;92.40;;;;;;5058579;28;20037;-59
2023/04/05 08:40:07;;;;;;;3.60;2.40;;;3.50;91.40;;;;;;5061847;28;20727;-60
2023/04/05 08:42:50;;;;;;;4.57;2.70;;;3.60;90.60;;;;;;5058537;28;20029;-58
2023/04/05 08:45:18;;;;;;;4.13;2.60;;;3.90;91.30;;;;;;5056962;28;20021;-59
2023/04/05 08:47:45;;;;;;;4.03;3.22;;;4.00;89.00;;;;;;5056721;28;20055;-59
2023/04/05 08:50:12;;;;;;;4.47;2.90;;;4.30;90.40;;;;;;5056366;28;20024;-60
2023/04/05 08:52:41;;;;;;;7.75;2.45;;;4.60;92.10;;;;;;5064009;28;20115;-58
2023/04/05 08:55:08;;;;;;;3.15;2.40;;;5.00;85.70;;;;;;5061347;28;20032;-59
2023/04/05 08:57:37;;;;;;;4.35;2.35;;;5.10;86.00;;;;;;5062834;28;20044;-60
2023/04/05 09:00:04;;;;;;;4.47;2.42;;;5.20;80.60;;;;;;5058662;28;20095;-59
2023/04/05 09:02:31;;;;;;;3.03;2.72;;;5.20;79.50;;;;;;5060796;28;20106;-58
2023/04/05 09:04:58;;;;;;;6.85;4.40;;;5.30;80.70;;;;;;5061676;28;20028;-60
2023/04/05 09:07:26;;;;;;;2.35;2.10;;;5.40;74.20;;;;;;5060804;28;20079;-60
2023/04/05 09:09:53;;;;;;;3.28;2.38;;;5.80;73.00;;;;;;5062300;28;20017;-59
2023/04/05 09:12:23;;;;;;;3.22;2.33;;;6.00;71.10;;;;;;5059451;28;20102;-60
2023/04/05 09:14:50;;;;;;;2.83;1.98;;;6.40;70.50;;;;;;5060855;28;20039;-59
2023/04/05 09:17:18;;;;;;;2.35;2.10;;;7.30;68.20;;;;;;5060183;28;20037;-61
2023/04/05 09:19:44;;;;;;;2.97;2.17;;;8.80;63.80;;;;;;5034741;28;20486;-59
2023/04/05 09:22:10;;;;;;;3.78;2.28;;;9.80;60.20;;;;;;5060894;28;20028;-59
2023/04/05 09:24:40;;;;;;;3.15;2.25;;;10.70;62.50;;;;;;5057615;28;20070;-59
2023/04/05 09:27:17;;;;;;;4.45;2.00;;;10.90;58.70;;;;;;5062588;28;20025;-59
2023/04/05 09:29:47;;;;;;;3.15;2.10;;;10.20;57.70;;;;;;5060987;28;20037;-59
2023/04/05 09:32:15;;;;;;;2.40;2.03;;;10.10;58.30;;;;;;5061767;28;20032;-60
2023/04/05 09:34:42;;;;;;;4.45;2.13;;;11.30;57.80;;;;;;5061375;28;20489;-59
2023/04/05 09:37:18;;;;;;;2.75;1.90;;;11.70;56.00;;;;;;5062221;28;20029;-58
2023/04/05 09:39:45;;;;;;;2.88;2.00;;;11.30;60.90;;;;;;5064070;28;20040;-58
2023/04/05 09:42:15;;;;;;;3.75;1.98;;;11.10;61.90;;;;;;5061403;28;20389;-57
2023/04/05 09:45:07;;;;;;;3.35;2.35;;;11.50;63.80;;;;;;5063641;28;20029;-58
2023/04/05 09:47:33;;;;;;;3.38;1.85;;;11.50;55.90;;;;;;5059027;28;20024;-58
2023/04/05 09:50:00;;;;;;;2.33;1.90;;;10.60;55.10;;;;;;5061460;28;20075;-58
2023/04/05 09:52:35;;;;;;;2.88;2.25;;;10.00;54.20;;;;;;5059707;28;20450;-61
2023/04/05 09:55:02;;;;;;;4.75;2.30;;;9.40;56.90;;;;;;5062701;28;20079;-59
2023/04/05 09:57:32;;;;;;;2.60;2.00;;;9.00;56.20;;;;;;5059617;28;20035;-58
2023/04/05 09:59:58;;;;;;;3.15;2.50;;;8.90;57.50;;;;;;5060278;28;20037;-60
2023/04/05 10:02:24;;;;;;;2.20;2.00;;;9.20;57.40;;;;;;5063353;28;20392;-60
2023/04/05 10:04:50;;;;;;;2.53;2.33;;;9.90;59.50;;;;;;5059083;28;20020;-60
2023/04/05 10:07:18;;;;;;;3.65;2.30;;;10.00;60.90;;;;;;5063202;28;20096;-60
2023/04/05 10:09:45;;;;;;;3.53;2.58;;;9.40;58.90;;;;;;5063125;28;20102;-61
2023/04/05 10:12:31;;;;;;;3.75;2.58;;;9.20;63.10;;;;;;5058618;28;20119;-59
2023/04/05 10:14:57;;;;;;;4.15;2.47;;;9.50;65.30;;;;;;5059792;28;20405;-59
2023/04/05 10:17:43;;;;;;;2.60;2.35;;;9.70;64.90;;;;;;5059797;28;20036;-60
2023/04/05 10:20:13;;;;;;;4.75;2.63;;;10.00;62.50;;;;;;5052303;28;20124;-61
2023/04/05 10:22:58;;;;;;;2.83;1.95;;;10.60;62.50;;;;;;5059250;28;20120;-60
2023/04/05 10:25:37;;;;;;;3.17;1.90;;;11.00;53.90;;;;;;5058660;28;20032;-60
2023/04/05 10:28:05;;;;;;;2.63;2.10;;;11.50;55.70;;;;;;5063592;28;20043;-59
2023/04/05 10:30:38;;;;;;;4.20;2.67;;;11.00;55.30;;;;;;5059524;28;20028;-58
2023/04/05 10:33:18;;;;;;;4.28;2.67;;;10.60;54.00;;;;;;5062110;28;20033;-59
2023/04/05 10:36:04;;;;;;;3.83;2.47;;;10.70;59.40;;;;;;5061285;28;20095;-61
2023/04/05 10:38:38;;;;;;;2.70;2.10;;;10.90;55.10;;;;;;5061965;28;20021;-60
2023/04/05 10:41:13;;;;;;;3.10;2.40;;;10.90;54.50;;;;;;5057804;28;20033;-60
2023/04/05 10:43:40;;;;;;;4.35;2.55;;;11.30;57.30;;;;;;5056553;28;20035;-60
2023/04/05 10:46:07;;;;;;;3.58;2.63;;;11.70;56.40;;;;;;5062627;28;20062;-58
2023/04/05 10:48:43;;;;;;;3.60;2.65;;;12.40;51.30;;;;;;5061412;28;20052;-58
2023/04/05 10:51:11;;;;;;;4.57;2.20;;;12.40;54.30;;;;;;5059123;28;20112;-58
2023/04/05 10:53:37;;;;;;;3.58;2.78;;;11.90;54.60;;;;;;5061871;28;20037;-58
2023/04/05 10:56:04;;;;;;;2.92;2.30;;;11.60;51.60;;;;;;5059880;28;20051;-59
2023/04/05 10:58:31;;;;;;;3.97;2.33;;;12.10;56.00;;;;;;5058159;28;20149;-57
2023/04/05 11:00:58;;;;;;;2.83;2.35;;;12.50;54.20;;;;;;5059476;28;20029;-60
2023/04/05 11:03:53;;;;;;;3.15;2.25;;;12.40;51.30;;;;;;5059052;28;20033;-58
2023/04/05 11:06:27;;;;;;;2.53;2.08;;;12.40;53.90;;;;;;5057949;28;20048;-58
2023/04/05 11:08:59;;;;;;;3.70;2.10;;;12.70;51.60;;;;;;5059816;28;20523;-58
2023/04/05 11:11:26;;;;;;;2.42;1.98;;;12.90;50.40;;;;;;5062806;28;20039;-58
2023/04/05 11:13:55;;;;;;;3.22;2.20;;;13.10;50.90;;;;;;5060626;28;20017;-58
2023/04/05 11:16:22;;;;;;;2.75;2.45;;;13.10;46.60;;;;;;5056196;28;20079;-59
2023/04/05 11:18:50;;;;;;;2.70;1.98;;;12.70;48.90;;;;;;5064234;28;20021;-60
2023/04/05 11:21:28;;;;;;;3.35;2.42;;;12.10;48.90;;;;;;5056525;28;20396;-59
2023/04/05 11:24:10;;;;;;;3.65;2.25;;;12.00;52.30;;;;;;5058801;28;20112;-59
2023/04/05 11:26:39;;;;;;;2.53;2.30;;;11.60;49.00;;;;;;5058331;28;20042;-59
2023/04/05 11:29:06;;;;;;;3.67;2.38;;;11.00;53.80;;;;;;5058808;28;20033;-59
2023/04/05 11:31:32;;;;;;;2.67;2.40;;;11.00;53.40;;;;;;5062936;28;20351;-60
2023/04/05 11:33:58;;;;;;;4.20;2.42;;;10.80;54.70;;;;;;5060114;28;20020;-59
2023/04/05 11:36:51;;;;;;;2.75;2.55;;;10.50;56.60;;;;;;5062510;28;20036;-59
2023/04/05 11:39:17;;;;;;;3.60;2.47;;;10.30;58.40;;;;;;5060292;28;20033;-58
2023/04/05 11:41:44;;;;;;;3.13;2.55;;;10.20;56.90;;;;;;5062362;28;20032;-58
2023/04/05 11:44:14;;;;;;;4.55;2.55;;;10.00;56.90;;;;;;5057159;28;20029;-60
2023/04/05 11:46:47;;;;;;;3.58;2.55;;;10.00;54.30;;;;;;5059845;28;20032;-60
2023/04/05 11:49:13;;;;;;;2.65;1.95;;;10.20;51.50;;;;;;5058894;28;20017;-60
2023/04/05 11:51:42;;;;;;;2.80;2.00;;;10.40;55.10;;;;;;5042259;28;20070;-59
2023/04/05 11:54:09;;;;;;;3.42;2.63;;;10.40;63.90;;;;;;5058877;28;20036;-60
2023/04/05 11:56:35;;;;;;;4.28;2.13;;;10.40;60.50;;;;;;5058374;28;20064;-60
2023/04/05 11:59:00;;;;;;;3.55;2.00;;;10.50;58.40;;;;;;5061809;28;20120;-58
2023/04/05 12:01:27;;;;;;;4.97;2.67;;;10.40;61.20;;;;;;5062675;28;20021;-59
2023/04/05 12:03:54;;;;;;;2.78;2.30;;;10.40;59.50;;;;;;5061163;28;20112;-59
2023/04/05 12:06:22;;;;;;;3.22;2.47;;;10.40;55.00;;;;;;5060992;28;20025;-59
2023/04/05 12:08:55;;;;;;;3.40;2.55;;;10.50;54.70;;;;;;5059704;28;20021;-59
2023/04/05 12:11:30;;;;;;;4.32;2.67;;;10.70;59.30;;;;;;5061247;28;20020;-60
2023/04/05 12:14:00;;;;;;;3.10;2.28;;;10.70;53.00;;;;;;5060286;28;20017;-60
2023/04/05 12:16:26;;;;;;;4.40;2.50;;;10.80;57.50;;;;;;5059433;28;20024;-59
2023/04/05 12:18:56;;;;;;;4.72;2.65;;;10.80;63.60;;;;;;5058747;28;20020;-59
2023/04/05 12:21:23;;;;;;;2.88;2.30;;;10.90;56.50;;;;;;5059093;28;20039;-60
2023/04/05 12:23:50;;;;;;;3.58;2.28;;;11.00;60.10;;;;;;5057787;28;20047;-58
2023/04/05 12:26:17;;;;;;;3.53;2.75;;;11.00;57.60;;;;;;5061577;28;20037;-60
2023/04/05 12:28:56;;;;;;;2.42;2.20;;;10.90;64.00;;;;;;5058945;28;20139;-60
2023/04/05 12:31:41;;;;;;;3.70;2.30;;;10.90;57.70;;;;;;5059172;28;20029;-59
2023/04/05 12:34:07;;;;;;;4.00;2.60;;;10.80;57.90;;;;;;5060774;28;20043;-58
2023/04/05 12:36:33;;;;;;;3.88;2.13;;;10.80;52.50;;;;;;5058162;28;20024;-60
2023/04/05 12:39:00;;;;;;;3.08;2.75;;;11.10;52.30;;;;;;5057642;28;20374;-59
2023/04/05 12:41:30;;;;;;;2.42;2.03;;;11.20;52.60;;;;;;5060665;28;20025;-59
2023/04/05 12:44:04;;;;;;;2.85;2.03;;;11.10;58.60;;;;;;5060386;28;20064;-59
2023/04/05 12:46:47;;;;;;;4.72;2.28;;;11.10;53.70;;;;;;5066667;28;20148;-59
2023/04/05 12:49:17;;;;;;;2.22;2.00;;;10.90;49.40;;;;;;5063468;28;20051;-59